Observation data for Northwest Lubbock on 08/13/2019      Previous  Date       Current Mesonet Observations  Soil Data  Daily Summary Page  Observations in Plain Language
KLBW 130500Z 33005KT 28/14 A2994 RMK A01 T02750139  RH  045%=      5-min Rain = 0
KLBW 130505Z 34005KT 28/14 A2994 RMK A01 T02770143  RH  046%=      5-min Rain = 0
KLBW 130510Z 34005KT 28/15 A2993 RMK A01 T02800146  RH  046%=      5-min Rain = 0
KLBW 130515Z 34005KT 28/15 A2993 RMK A01 T02790146  RH  046%=      5-min Rain = 0
KLBW 130520Z 33004KT 28/15 A2993 RMK A01 T02760147  RH  047%=      5-min Rain = 0
KLBW 130525Z 34004KT 27/15 A2993 RMK A01 T02740147  RH  048%=      5-min Rain = 0
KLBW 130530Z 34006G16KT 27/15 A2993 RMK A01 T02730148  RH  049%=      5-min Rain = 0
KLBW 130535Z 35007KT 28/15 A2993 RMK A01 T02750148  RH  048%=      5-min Rain = 0
KLBW 130540Z 36006KT 28/15 A2993 RMK A01 T02750147  RH  047%=      5-min Rain = 0
KLBW 130545Z 35007G12KT 27/15 A2994 RMK A01 T02720147  RH  048%=      5-min Rain = 0
KLBW 130550Z 35009KT 27/15 A2994 RMK A01 T02700149  RH  050%=      5-min Rain = 0
KLBW 130555Z 36011G16KT 27/15 A2994 RMK A01 T02680152  RH  051%=      5-min Rain = 0
KLBW 130600Z 00010G15KT 27/15 A2994 RMK A01 T02670154  RH  052%=      5-min Rain = 0
KLBW 130605Z 36010G15KT 27/16 A2994 RMK A01 T02650155  RH  053%=      5-min Rain = 0
KLBW 130610Z 36009KT 26/16 A2994 RMK A01 T02640157  RH  054%=      5-min Rain = 0
KLBW 130615Z 01010KT 26/16 A2994 RMK A01 T02630158  RH  055%=      5-min Rain = 0
KLBW 130620Z 01010KT 26/16 A2993 RMK A01 T02610159  RH  056%=      5-min Rain = 0
KLBW 130625Z 01011KT 26/16 A2993 RMK A01 T02590159  RH  057%=      5-min Rain = 0
KLBW 130630Z 02009KT 26/16 A2993 RMK A01 T02590159  RH  057%=      5-min Rain = 0
KLBW 130635Z 00009KT 26/16 A2993 RMK A01 T02600159  RH  056%=      5-min Rain = 0
KLBW 130640Z 36011G18KT 26/16 A2994 RMK A01 T02590159  RH  056%=      5-min Rain = 0
KLBW 130645Z 02013G18KT 26/16 A2994 RMK A01 T02570161  RH  058%=      5-min Rain = 0
KLBW 130650Z 03015G21KT 26/16 A2994 RMK A01 T02570162  RH  059%=      5-min Rain = 0
KLBW 130655Z 03017G23KT 26/16 A2995 RMK A01 T02550164  RH  060%=      5-min Rain = 0
KLBW 130700Z 04016G22KT 25/17 A2995 RMK A01 T02510165  RH  062%=      5-min Rain = 0
KLBW 130705Z 04014G23KT 25/17 A2996 RMK A01 T02490166  RH  063%=      5-min Rain = 0
KLBW 130710Z 04015G22KT 25/17 A2996 RMK A01 T02460166  RH  064%=      5-min Rain = 0
KLBW 130715Z 04014G26KT 24/17 A2996 RMK A01 T02430166  RH  065%=      5-min Rain = 0
KLBW 130720Z 04012G20KT 24/17 A2996 RMK A01 T02410167  RH  066%=      5-min Rain = 0
KLBW 130725Z 04014G23KT 24/17 A2997 RMK A01 T02390168  RH  068%=      5-min Rain = 0
KLBW 130730Z 04015G23KT 24/17 A2997 RMK A01 T02380168  RH  068%=      5-min Rain = 0
KLBW 130735Z 05013G19KT 24/17 A2997 RMK A01 T02360169  RH  069%=      5-min Rain = 0
KLBW 130740Z 04014G20KT 24/17 A2997 RMK A01 T02350170  RH  070%=      5-min Rain = 0
KLBW 130745Z 05013G18KT 23/17 A2997 RMK A01 T02330170  RH  071%=      5-min Rain = 0
KLBW 130750Z 05014G21KT 23/17 A2997 RMK A01 T02320171  RH  072%=      5-min Rain = 0
KLBW 130755Z 05013G23KT 23/17 A2997 RMK A01 T02310171  RH  073%=      5-min Rain = 0
KLBW 130800Z 05014G21KT 23/17 A2997 RMK A01 T02300172  RH  074%=      5-min Rain = 0
KLBW 130805Z 05013G18KT 23/17 A2997 RMK A01 T02280173  RH  075%=      5-min Rain = 0
KLBW 130810Z 05011G16KT 23/17 A2997 RMK A01 T02270173  RH  075%=      5-min Rain = 0
KLBW 130815Z 05011KT 23/17 A2997 RMK A01 T02270174  RH  076%=      5-min Rain = 0
KLBW 130820Z 05011G17KT 23/17 A2997 RMK A01 T02270174  RH  076%=      5-min Rain = 0
KLBW 130825Z 05010G16KT 23/17 A2997 RMK A01 T02260174  RH  076%=      5-min Rain = 0
KLBW 130830Z 05011G16KT 23/17 A2997 RMK A01 T02250174  RH  077%=      5-min Rain = 0
KLBW 130835Z 05010G15KT 23/17 A2997 RMK A01 T02250174  RH  077%=      5-min Rain = 0
KLBW 130840Z 05009G14KT 22/17 A2997 RMK A01 T02240174  RH  077%=      5-min Rain = 0
KLBW 130845Z 05011KT 22/18 A2997 RMK A01 T02240175  RH  078%=      5-min Rain = 0
KLBW 130850Z 06010G15KT 22/18 A2997 RMK A01 T02230175  RH  078%=      5-min Rain = 0
KLBW 130855Z 05009G14KT 22/18 A2997 RMK A01 T02230175  RH  078%=      5-min Rain = 0
KLBW 130900Z 05009G15KT 22/18 A2997 RMK A01 T02220175  RH  078%=      5-min Rain = 0
KLBW 130905Z 06011G17KT 22/18 A2997 RMK A01 T02220175  RH  079%=      5-min Rain = 0
KLBW 130910Z 06011G17KT 22/18 A2997 RMK A01 T02210175  RH  079%=      5-min Rain = 0
KLBW 130915Z 06010KT 22/18 A2997 RMK A01 T02210175  RH  079%=      5-min Rain = 0
KLBW 130920Z 05013KT 22/18 A2997 RMK A01 T02210176  RH  080%=      5-min Rain = 0
KLBW 130925Z 05011G16KT 22/18 A2997 RMK A01 T02200176  RH  080%=      5-min Rain = 0
KLBW 130930Z 05010G16KT 22/18 A2998 RMK A01 T02190177  RH  081%=      5-min Rain = 0
KLBW 130935Z 05012G18KT 22/18 A2998 RMK A01 T02180178  RH  082%=      5-min Rain = 0
KLBW 130940Z 05010KT 22/18 A2998 RMK A01 T02170178  RH  083%=      5-min Rain = 0
KLBW 130945Z 05010KT 22/18 A2998 RMK A01 T02170179  RH  083%=      5-min Rain = 0
KLBW 130950Z 05010G16KT 22/18 A2998 RMK A01 T02160179  RH  084%=      5-min Rain = 0
KLBW 130955Z 05011KT 22/18 A2998 RMK A01 T02150180  RH  085%=      5-min Rain = 0
KLBW 131000Z 05009G14KT 21/18 A2999 RMK A01 T02140180  RH  085%=      5-min Rain = 0
KLBW 131005Z 05008G13KT 21/18 A30 RMK A01 T02140180  RH  086%=      5-min Rain = 0
KLBW 131010Z 05012KT 21/18 A30 RMK A01 T02130181  RH  086%=      5-min Rain = 0
KLBW 131015Z 05010KT 21/18 A30 RMK A01 T02130181  RH  087%=      5-min Rain = 0
KLBW 131020Z 05008G13KT 21/18 A30 RMK A01 T02120181  RH  087%=      5-min Rain = 0
KLBW 131025Z 05008KT 21/18 A30 RMK A01 T02120182  RH  088%=      5-min Rain = 0
KLBW 131030Z 05008KT 21/18 A30 RMK A01 T02110182  RH  088%=      5-min Rain = 0
KLBW 131035Z 07008G13KT 21/18 A3001 RMK A01 T02110183  RH  089%=      5-min Rain = 0
KLBW 131040Z 06009KT 21/18 A3001 RMK A01 T02100183  RH  089%=      5-min Rain = 0
KLBW 131045Z 06008G13KT 21/18 A3001 RMK A01 T02100184  RH  089%=      5-min Rain = 0
KLBW 131050Z 06010G15KT 21/18 A3001 RMK A01 T02100184  RH  090%=      5-min Rain = 0
KLBW 131055Z 07010G15KT 21/18 A3001 RMK A01 T02100184  RH  090%=      5-min Rain = 0
KLBW 131100Z 06008G13KT 21/18 A3001 RMK A01 T02090184  RH  091%=      5-min Rain = 0
KLBW 131105Z 06008KT 21/19 A3001 RMK A01 T02090185  RH  091%=      5-min Rain = 0
KLBW 131110Z 06009KT 21/19 A3001 RMK A01 T02090185  RH  091%=      5-min Rain = 0
KLBW 131115Z 06007KT 21/19 A3001 RMK A01 T02090185  RH  091%=      5-min Rain = 0
KLBW 131120Z 04007G12KT 21/19 A3002 RMK A01 T02090185  RH  091%=      5-min Rain = 0
KLBW 131125Z 04007G12KT 21/19 A3003 RMK A01 T02100186  RH  091%=      5-min Rain = 0
KLBW 131130Z 04007KT 21/19 A3003 RMK A01 T02100185  RH  091%=      5-min Rain = 0
KLBW 131135Z 04007KT 21/19 A3003 RMK A01 T02100185  RH  091%=      5-min Rain = 0
KLBW 131140Z 05009KT 21/19 A3003 RMK A01 T02100185  RH  090%=      5-min Rain = 0
KLBW 131145Z 05008KT 21/19 A3003 RMK A01 T02100185  RH  090%=      5-min Rain = 0
KLBW 131150Z 05008G13KT 21/18 A3003 RMK A01 T02100184  RH  090%=      5-min Rain = 0
KLBW 131155Z 05009KT 21/18 A3003 RMK A01 T02090184  RH  091%=      5-min Rain = 0
KLBW 131200Z 05008KT 21/18 A3003 RMK A01 T02080184  RH  091%=      5-min Rain = 0
KLBW 131205Z 05007KT 21/19 A3003 RMK A01 T02080185  RH  091%=      5-min Rain = 0
KLBW 131210Z 05007KT 21/19 A3003 RMK A01 T02070185  RH  092%=      5-min Rain = 0
KLBW 131215Z 05006KT 21/19 A3003 RMK A01 T02070185  RH  092%=      5-min Rain = 0
KLBW 131220Z 04005KT 21/19 A3004 RMK A01 T02070185  RH  092%=      5-min Rain = 0
KLBW 131225Z 04005KT 21/19 A3004 RMK A01 T02070185  RH  092%=      5-min Rain = 0
KLBW 131230Z 04006KT 21/19 A3004 RMK A01 T02070186  RH  092%=      5-min Rain = 0
KLBW 131235Z 04006KT 21/19 A3004 RMK A01 T02080185  RH  092%=      5-min Rain = 0
KLBW 131240Z 05005KT 21/19 A3004 RMK A01 T02090185  RH  091%=      5-min Rain = 0
KLBW 131245Z 04005KT 21/19 A3004 RMK A01 T02100185  RH  090%=      5-min Rain = 0
KLBW 131250Z 03007KT 21/19 A3005 RMK A01 T02120185  RH  089%=      5-min Rain = 0
KLBW 131255Z 04006KT 21/19 A3005 RMK A01 T02120185  RH  089%=      5-min Rain = 0
KLBW 131300Z 04005KT 21/19 A3005 RMK A01 T02140185  RH  088%=      5-min Rain = 0
KLBW 131305Z 03005KT 22/18 A3005 RMK A01 T02150184  RH  087%=      5-min Rain = 0
KLBW 131310Z 04005KT 22/18 A3005 RMK A01 T02170184  RH  086%=      5-min Rain = 0
KLBW 131315Z 05005KT 22/18 A3005 RMK A01 T02180183  RH  085%=      5-min Rain = 0
KLBW 131320Z 03005KT 22/18 A3005 RMK A01 T02190183  RH  084%=      5-min Rain = 0
KLBW 131325Z 05006KT 22/18 A3006 RMK A01 T02220182  RH  083%=      5-min Rain = 0
KLBW 131330Z 05007KT 22/18 A3006 RMK A01 T02210181  RH  082%=      5-min Rain = 0
KLBW 131335Z 05007KT 22/18 A3006 RMK A01 T02240181  RH  081%=      5-min Rain = 0
KLBW 131340Z 04006KT 23/18 A3006 RMK A01 T02250180  RH  080%=      5-min Rain = 0
KLBW 131345Z 04006KT 23/18 A3007 RMK A01 T02270180  RH  079%=      5-min Rain = 0
KLBW 131350Z 04007KT 23/18 A3007 RMK A01 T02290180  RH  078%=      5-min Rain = 0
KLBW 131355Z 05006KT 23/18 A3007 RMK A01 T02320180  RH  076%=      5-min Rain = 0
KLBW 131400Z 05007KT 23/18 A3007 RMK A01 T02330179  RH  075%=      5-min Rain = 0
KLBW 131405Z 05008KT 23/18 A3007 RMK A01 T02340178  RH  075%=      5-min Rain = 0
KLBW 131410Z 06008KT 24/18 A3007 RMK A01 T02370178  RH  073%=      5-min Rain = 0
KLBW 131415Z 06007KT 24/18 A3007 RMK A01 T02400179  RH  072%=      5-min Rain = 0
KLBW 131420Z 07008KT 24/18 A3007 RMK A01 T02430178  RH  071%=      5-min Rain = 0
KLBW 131425Z 06008KT 24/18 A3007 RMK A01 T02440178  RH  070%=      5-min Rain = 0
KLBW 131430Z 05009KT 25/18 A3007 RMK A01 T02450178  RH  069%=      5-min Rain = 0
KLBW 131435Z 06008KT 25/18 A3007 RMK A01 T02480178  RH  068%=      5-min Rain = 0
KLBW 131440Z 07008KT 25/18 A3007 RMK A01 T02510178  RH  067%=      5-min Rain = 0
KLBW 131445Z 06008KT 25/18 A3008 RMK A01 T02510177  RH  067%=      5-min Rain = 0
KLBW 131450Z 06009KT 25/18 A3008 RMK A01 T02540178  RH  066%=      5-min Rain = 0
KLBW 131455Z 07010KT 25/18 A3008 RMK A01 T02540177  RH  065%=      5-min Rain = 0
KLBW 131500Z 06008KT 25/18 A3008 RMK A01 T02540177  RH  066%=      5-min Rain = 0
KLBW 131505Z 07008KT 26/18 A3008 RMK A01 T02580178  RH  064%=      5-min Rain = 0
KLBW 131510Z 07010KT 26/18 A3008 RMK A01 T02600176  RH  063%=      5-min Rain = 0
KLBW 131515Z 06009G14KT 26/18 A3008 RMK A01 T02580176  RH  064%=      5-min Rain = 0
KLBW 131520Z 07009G14KT 26/18 A3008 RMK A01 T02620177  RH  063%=      5-min Rain = 0
KLBW 131525Z 07009KT 27/18 A3008 RMK A01 T02650176  RH  061%=      5-min Rain = 0
KLBW 131530Z 07007KT 27/18 A3008 RMK A01 T02690177  RH  060%=      5-min Rain = 0
KLBW 131535Z 06010KT 27/18 A3008 RMK A01 T02690176  RH  060%=      5-min Rain = 0
KLBW 131540Z 07010KT 27/18 A3008 RMK A01 T02690177  RH  060%=      5-min Rain = 0
KLBW 131545Z 07010KT 27/18 A3008 RMK A01 T02690176  RH  060%=      5-min Rain = 0
KLBW 131550Z 07009KT 27/18 A3008 RMK A01 T02710177  RH  060%=      5-min Rain = 0
KLBW 131555Z 09009G15KT 27/18 A3008 RMK A01 T02730177  RH  059%=      5-min Rain = 0
KLBW 131600Z 08010KT 28/18 A3009 RMK A01 T02780178  RH  057%=      5-min Rain = 0
KLBW 131605Z 07009G14KT 28/18 A3009 RMK A01 T02800177  RH  056%=      5-min Rain = 0
KLBW 131610Z 07010KT 28/17 A3009 RMK A01 T02810173  RH  055%=      5-min Rain = 0
KLBW 131615Z 08008G14KT 28/18 A3009 RMK A01 T02830175  RH  055%=      5-min Rain = 0
KLBW 131620Z 07010KT 28/17 A3009 RMK A01 T02830173  RH  054%=      5-min Rain = 0
KLBW 131625Z 07009G14KT 29/17 A3009 RMK A01 T02880173  RH  052%=      5-min Rain = 0
KLBW 131630Z 07007G12KT 29/17 A3009 RMK A01 T02920174  RH  051%=      5-min Rain = 0
KLBW 131635Z 08010G16KT 29/17 A3009 RMK A01 T02910171  RH  051%=      5-min Rain = 0
KLBW 131640Z 08010KT 29/17 A301 RMK A01 T02900171  RH  051%=      5-min Rain = 0
KLBW 131645Z 09010KT 29/17 A301 RMK A01 T02910170  RH  051%=      5-min Rain = 0
KLBW 131650Z 08010G15KT 29/17 A301 RMK A01 T02940171  RH  050%=      5-min Rain = 0
KLBW 131655Z 05009KT 30/17 A301 RMK A01 T02970170  RH  049%=      5-min Rain = 0
KLBW 131700Z 06010G16KT 30/17 A301 RMK A01 T02970168  RH  048%=      5-min Rain = 0
KLBW 131705Z 06009G14KT 30/17 A301 RMK A01 T02970168  RH  048%=      5-min Rain = 0
KLBW 131710Z 06009G16KT 30/17 A301 RMK A01 T02960168  RH  048%=      5-min Rain = 0
KLBW 131715Z 06008KT 30/17 A301 RMK A01 T02990169  RH  048%=      5-min Rain = 0
KLBW 131720Z 04010G16KT 30/17 A301 RMK A01 T02990168  RH  047%=      5-min Rain = 0
KLBW 131725Z 07010G16KT 30/17 A301 RMK A01 T03020169  RH  047%=      5-min Rain = 0
KLBW 131730Z 08009G15KT 30/17 A3009 RMK A01 T03040170  RH  047%=      5-min Rain = 0
KLBW 131735Z 07011G16KT 30/17 A3009 RMK A01 T03040170  RH  047%=      5-min Rain = 0
KLBW 131740Z 05010G17KT 31/17 A3009 RMK A01 T03080168  RH  045%=      5-min Rain = 0
KLBW 131745Z 05009G16KT 31/17 A3009 RMK A01 T03110168  RH  044%=      5-min Rain = 0
KLBW 131750Z 05009KT 31/17 A3009 RMK A01 T03110167  RH  044%=      5-min Rain = 0
KLBW 131755Z 06010KT 31/17 A3009 RMK A01 T03080168  RH  045%=      5-min Rain = 0
KLBW 131800Z 06011G18KT 31/17 A3009 RMK A01 T03140168  RH  044%=      5-min Rain = 0
KLBW 131805Z 05009KT 31/17 A3009 RMK A01 T03120167  RH  044%=      5-min Rain = 0
KLBW 131810Z 05011G20KT 32/17 A3009 RMK A01 T03170167  RH  043%=      5-min Rain = 0
KLBW 131815Z 07010G16KT 31/17 A3009 RMK A01 T03140166  RH  043%=      5-min Rain = 0
KLBW 131820Z 04010G15KT 32/17 A3009 RMK A01 T03170167  RH  043%=      5-min Rain = 0
KLBW 131825Z 04011G17KT 32/17 A3009 RMK A01 T03170166  RH  042%=      5-min Rain = 0
KLBW 131830Z 05010G17KT 32/17 A3009 RMK A01 T03170167  RH  043%=      5-min Rain = 0
KLBW 131835Z 05011G17KT 32/17 A3009 RMK A01 T03160168  RH  043%=      5-min Rain = 0
KLBW 131840Z 05011G16KT 32/17 A3009 RMK A01 T03200168  RH  042%=      5-min Rain = 0
KLBW 131845Z 05010G16KT 32/17 A3009 RMK A01 T03180166  RH  042%=      5-min Rain = 0
KLBW 131850Z 04010G15KT 32/17 A3009 RMK A01 T03220166  RH  041%=      5-min Rain = 0
KLBW 131855Z 06010G15KT 32/17 A3009 RMK A01 T03220168  RH  042%=      5-min Rain = 0
KLBW 131900Z 06011G18KT 32/17 A3009 RMK A01 T03190165  RH  042%=      5-min Rain = 0
KLBW 131905Z 05011G18KT 32/17 A3009 RMK A01 T03240165  RH  041%=      5-min Rain = 0
KLBW 131910Z 06011G17KT 33/17 A3009 RMK A01 T03260165  RH  040%=      5-min Rain = 0
KLBW 131915Z 05009G14KT 32/17 A3009 RMK A01 T03220166  RH  041%=      5-min Rain = 0
KLBW 131920Z 08010G17KT 32/17 A3009 RMK A01 T03230168  RH  041%=      5-min Rain = 0
KLBW 131925Z 07011G17KT 33/17 A3009 RMK A01 T03270168  RH  040%=      5-min Rain = 0
KLBW 131930Z 06014G19KT 33/16 A3009 RMK A01 T03260162  RH  039%=      5-min Rain = 0
KLBW 131935Z 06012G18KT 32/16 A3009 RMK A01 T03240163  RH  040%=      5-min Rain = 0
KLBW 131940Z 06010G15KT 33/16 A3009 RMK A01 T03260164  RH  040%=      5-min Rain = 0
KLBW 131945Z 07013G18KT 33/16 A3009 RMK A01 T03290162  RH  038%=      5-min Rain = 0
KLBW 131950Z 06011G16KT 33/16 A3008 RMK A01 T03250162  RH  039%=      5-min Rain = 0
KLBW 131955Z 08012G17KT 33/16 A3008 RMK A01 T03300161  RH  038%=      5-min Rain = 0
KLBW 132000Z 07013KT 33/16 A3008 RMK A01 T03300161  RH  038%=      5-min Rain = 0
KLBW 132005Z 05009G15KT 33/16 A3008 RMK A01 T03320161  RH  038%=      5-min Rain = 0
KLBW 132010Z 06012KT 33/16 A3008 RMK A01 T03340159  RH  037%=      5-min Rain = 0
KLBW 132015Z 06010G21KT 33/16 A3008 RMK A01 T03310158  RH  037%=      5-min Rain = 0
KLBW 132020Z 06010G17KT 33/16 A3008 RMK A01 T03330160  RH  037%=      5-min Rain = 0
KLBW 132025Z 05011G18KT 34/16 A3007 RMK A01 T03360160  RH  037%=      5-min Rain = 0
KLBW 132030Z 06011G16KT 33/16 A3007 RMK A01 T03340158  RH  037%=      5-min Rain = 0
KLBW 132035Z 08009G16KT 33/16 A3007 RMK A01 T03330159  RH  037%=      5-min Rain = 0
KLBW 132040Z 06011G16KT 34/16 A3007 RMK A01 T03370160  RH  036%=      5-min Rain = 0
KLBW 132045Z 05010G18KT 34/16 A3007 RMK A01 T03400158  RH  035%=      5-min Rain = 0
KLBW 132050Z 08008G15KT 34/16 A3007 RMK A01 T03350158  RH  036%=      5-min Rain = 0
KLBW 132055Z 08009G14KT 34/16 A3007 RMK A01 T03430159  RH  035%=      5-min Rain = 0
KLBW 132100Z 06010KT 34/16 A3007 RMK A01 T03410158  RH  035%=      5-min Rain = 0
KLBW 132105Z 07009G14KT 34/16 A3006 RMK A01 T03410159  RH  036%=      5-min Rain = 0
KLBW 132110Z 07010G15KT 34/16 A3006 RMK A01 T03400156  RH  035%=      5-min Rain = 0
KLBW 132115Z 09010KT 34/16 A3006 RMK A01 T03380156  RH  035%=      5-min Rain = 0
KLBW 132120Z 07010G16KT 34/15 A3006 RMK A01 T03390153  RH  035%=      5-min Rain = 0
KLBW 132125Z 06011KT 34/15 A3006 RMK A01 T03380153  RH  034%=      5-min Rain = 0
KLBW 132130Z 07010G15KT 34/16 A3006 RMK A01 T03390155  RH  035%=      5-min Rain = 0
KLBW 132135Z 08012G17KT 34/15 A3006 RMK A01 T03380152  RH  034%=      5-min Rain = 0
KLBW 132140Z 08009G16KT 34/15 A3005 RMK A01 T03380152  RH  034%=      5-min Rain = 0
KLBW 132145Z 06010G16KT 34/15 A3005 RMK A01 T03400152  RH  034%=      5-min Rain = 0
KLBW 132150Z 06009G18KT 34/15 A3005 RMK A01 T03390152  RH  034%=      5-min Rain = 0
KLBW 132155Z 07010KT 34/15 A3005 RMK A01 T03430153  RH  034%=      5-min Rain = 0
KLBW 132200Z 08008G13KT 34/15 A3005 RMK A01 T03410154  RH  034%=      5-min Rain = 0
KLBW 132205Z 07010G17KT 34/15 A3004 RMK A01 T03420154  RH  034%=      5-min Rain = 0
KLBW 132210Z 07010G15KT 34/15 A3004 RMK A01 T03390153  RH  034%=      5-min Rain = 0
KLBW 132215Z 06011G18KT 34/15 A3004 RMK A01 T03430153  RH  034%=      5-min Rain = 0
KLBW 132220Z 05010KT 34/15 A3004 RMK A01 T03390152  RH  034%=      5-min Rain = 0
KLBW 132225Z 06009G14KT 34/15 A3004 RMK A01 T03410153  RH  034%=      5-min Rain = 0
KLBW 132230Z 09008G16KT 34/15 A3004 RMK A01 T03400153  RH  034%=      5-min Rain = 0
KLBW 132235Z 07008G13KT 34/16 A3003 RMK A01 T03410155  RH  034%=      5-min Rain = 0
KLBW 132240Z 06010G16KT 34/15 A3003 RMK A01 T03440153  RH  034%=      5-min Rain = 0
KLBW 132245Z 06012G19KT 34/15 A3003 RMK A01 T03410153  RH  034%=      5-min Rain = 0
KLBW 132250Z 07009KT 34/15 A3003 RMK A01 T03410154  RH  034%=      5-min Rain = 0
KLBW 132255Z 09010G15KT 34/16 A3003 RMK A01 T03400155  RH  035%=      5-min Rain = 0
KLBW 132300Z 09010G15KT 34/16 A3003 RMK A01 T03380155  RH  035%=      5-min Rain = 0
KLBW 132305Z 06008G19KT 34/15 A3003 RMK A01 T03390153  RH  034%=      5-min Rain = 0
KLBW 132310Z 06011KT 34/15 A3003 RMK A01 T03400153  RH  034%=      5-min Rain = 0
KLBW 132315Z 07011G17KT 34/15 A3003 RMK A01 T03360152  RH  035%=      5-min Rain = 0
KLBW 132320Z 07010G15KT 34/15 A3003 RMK A01 T03370153  RH  035%=      5-min Rain = 0
KLBW 132325Z 07009G18KT 34/15 A3003 RMK A01 T03360154  RH  035%=      5-min Rain = 0
KLBW 132330Z 07010G16KT 33/15 A3003 RMK A01 T03340152  RH  035%=      5-min Rain = 0
KLBW 132335Z 09008KT 34/15 A3004 RMK A01 T03370153  RH  035%=      5-min Rain = 0
KLBW 132340Z 10009KT 34/15 A3004 RMK A01 T03370154  RH  035%=      5-min Rain = 0
KLBW 132345Z 07010KT 33/15 A3004 RMK A01 T03340154  RH  036%=      5-min Rain = 0
KLBW 132350Z 07011KT 33/15 A3003 RMK A01 T03300153  RH  036%=      5-min Rain = 0
KLBW 132355Z 06008G13KT 33/15 A3004 RMK A01 T03250153  RH  037%=      5-min Rain = 0
KLBW 140000Z 06009G14KT 33/15 A3004 RMK A01 T03320153  RH  036%=      5-min Rain = 0
KLBW 140005Z 06010KT 33/15 A3004 RMK A01 T03320152  RH  036%=      5-min Rain = 0
KLBW 140010Z 08010KT 33/15 A3004 RMK A01 T03300153  RH  036%=      5-min Rain = 0
KLBW 140015Z 06008KT 33/15 A3004 RMK A01 T03280153  RH  036%=      5-min Rain = 0
KLBW 140020Z 06011KT 33/15 A3004 RMK A01 T03280153  RH  036%=      5-min Rain = 0
KLBW 140025Z 07008G14KT 33/15 A3004 RMK A01 T03260153  RH  037%=      5-min Rain = 0
KLBW 140030Z 07009G14KT 33/15 A3004 RMK A01 T03250154  RH  037%=      5-min Rain = 0
KLBW 140035Z 07009G14KT 32/15 A3004 RMK A01 T03240154  RH  038%=      5-min Rain = 0
KLBW 140040Z 06010KT 32/15 A3004 RMK A01 T03230153  RH  038%=      5-min Rain = 0
KLBW 140045Z 06008KT 32/15 A3004 RMK A01 T03230154  RH  038%=      5-min Rain = 0
KLBW 140050Z 06008KT 32/16 A3005 RMK A01 T03210155  RH  038%=      5-min Rain = 0
KLBW 140055Z 07008KT 32/16 A3005 RMK A01 T03200155  RH  039%=      5-min Rain = 0
KLBW 140100Z 08010KT 32/16 A3005 RMK A01 T03170155  RH  039%=      5-min Rain = 0
KLBW 140105Z 07007KT 32/16 A3005 RMK A01 T03160155  RH  040%=      5-min Rain = 0
KLBW 140110Z 07008G13KT 31/16 A3005 RMK A01 T03140155  RH  040%=      5-min Rain = 0
KLBW 140115Z 07008G13KT 31/16 A3006 RMK A01 T03120155  RH  041%=      5-min Rain = 0
KLBW 140120Z 07009KT 31/16 A3006 RMK A01 T03100155  RH  041%=      5-min Rain = 0
KLBW 140125Z 07009KT 31/15 A3006 RMK A01 T03100154  RH  041%=      5-min Rain = 0
KLBW 140130Z 07009KT 31/15 A3006 RMK A01 T03090154  RH  041%=      5-min Rain = 0
KLBW 140135Z 07009KT 31/16 A3006 RMK A01 T03090155  RH  041%=      5-min Rain = 0
KLBW 140140Z 07008KT 31/16 A3007 RMK A01 T03070155  RH  042%=      5-min Rain = 0
KLBW 140145Z 07007KT 31/16 A3007 RMK A01 T03060155  RH  042%=      5-min Rain = 0
KLBW 140150Z 07007KT 30/16 A3007 RMK A01 T03040156  RH  043%=      5-min Rain = 0
KLBW 140155Z 07008KT 31/16 A3006 RMK A01 T03050156  RH  042%=      5-min Rain = 0
KLBW 140200Z 07007KT 30/16 A3007 RMK A01 T03030155  RH  043%=      5-min Rain = 0
KLBW 140205Z 07007KT 30/16 A3007 RMK A01 T03020155  RH  043%=      5-min Rain = 0
KLBW 140210Z 07007KT 30/16 A3007 RMK A01 T03000156  RH  043%=      5-min Rain = 0
KLBW 140215Z 07006KT 30/16 A3008 RMK A01 T02990156  RH  044%=      5-min Rain = 0
KLBW 140220Z 06006KT 30/16 A3008 RMK A01 T02990156  RH  044%=      5-min Rain = 0
KLBW 140225Z 07007KT 30/16 A3009 RMK A01 T02980157  RH  045%=      5-min Rain = 0
KLBW 140230Z 06007KT 30/16 A3009 RMK A01 T02980157  RH  045%=      5-min Rain = 0
KLBW 140235Z 07006KT 30/16 A3009 RMK A01 T02970158  RH  045%=      5-min Rain = 0
KLBW 140240Z 07006KT 30/16 A3009 RMK A01 T02950158  RH  046%=      5-min Rain = 0
KLBW 140245Z 07007KT 29/16 A3009 RMK A01 T02940158  RH  046%=      5-min Rain = 0
KLBW 140250Z 07008KT 29/16 A301 RMK A01 T02930159  RH  046%=      5-min Rain = 0
KLBW 140255Z 07009KT 29/16 A301 RMK A01 T02930159  RH  047%=      5-min Rain = 0
KLBW 140300Z 06008KT 29/16 A301 RMK A01 T02920160  RH  047%=      5-min Rain = 0
KLBW 140305Z 07008KT 29/16 A301 RMK A01 T02910160  RH  047%=      5-min Rain = 0
KLBW 140310Z 07008KT 29/16 A301 RMK A01 T02900161  RH  048%=      5-min Rain = 0
KLBW 140315Z 07008KT 29/16 A301 RMK A01 T02880161  RH  048%=      5-min Rain = 0
KLBW 140320Z 07008KT 29/16 A3011 RMK A01 T02870161  RH  049%=      5-min Rain = 0
KLBW 140325Z 08007KT 29/16 A3011 RMK A01 T02860161  RH  049%=      5-min Rain = 0
KLBW 140330Z 07007KT 28/16 A3012 RMK A01 T02840162  RH  050%=      5-min Rain = 0
KLBW 140335Z 08007KT 28/16 A3012 RMK A01 T02830161  RH  050%=      5-min Rain = 0
KLBW 140340Z 07007KT 28/16 A3012 RMK A01 T02810162  RH  051%=      5-min Rain = 0
KLBW 140345Z 07007KT 28/16 A3012 RMK A01 T02800162  RH  051%=      5-min Rain = 0
KLBW 140350Z 07007KT 28/16 A3012 RMK A01 T02780162  RH  052%=      5-min Rain = 0
KLBW 140355Z 07006KT 28/16 A3012 RMK A01 T02770162  RH  052%=      5-min Rain = 0
KLBW 140400Z 06007KT 28/16 A3012 RMK A01 T02770162  RH  052%=      5-min Rain = 0
KLBW 140405Z 06007KT 28/16 A3012 RMK A01 T02770162  RH  052%=      5-min Rain = 0
KLBW 140410Z 05007KT 28/16 A3012 RMK A01 T02760161  RH  052%=      5-min Rain = 0
KLBW 140415Z 06006KT 27/16 A3012 RMK A01 T02730160  RH  053%=      5-min Rain = 0
KLBW 140420Z 05005KT 27/16 A3013 RMK A01 T02700161  RH  054%=      5-min Rain = 0
KLBW 140425Z 06007KT 27/16 A3013 RMK A01 T02690161  RH  054%=      5-min Rain = 0
KLBW 140430Z 07006KT 27/16 A3013 RMK A01 T02670162  RH  055%=      5-min Rain = 0
KLBW 140435Z 07006KT 27/16 A3013 RMK A01 T02660162  RH  056%=      5-min Rain = 0
KLBW 140440Z 06006KT 27/16 A3013 RMK A01 T02650163  RH  056%=      5-min Rain = 0
KLBW 140445Z 05007KT 27/16 A3013 RMK A01 T02660163  RH  056%=      5-min Rain = 0
KLBW 140450Z 05006KT 27/16 A3013 RMK A01 T02660164  RH  056%=      5-min Rain = 0
KLBW 140455Z 06007KT 26/17 A3014 RMK A01 T02630165  RH  058%=      5-min Rain = 0

Page generated in 0.0092 seconds.